Pagina principale
METAR-TAF:

METAR-TAF

Aeroporti :

Mostar, Bosnia-Erzegovina

Aeroporto Internazionale di Mostar

latitudine: 43-21N, longitudine: 017-48E, altezza: 108 m

Osservazione

Il bollettino è stato emesso 32 minuti fa, alle 10:00 UTC
Vento 16 kt da nord/nord-ovest
Temperature 19°C
Umidità 43%
Pressione 1016 hPa
Visibilità 10 km o più
Poco nuvoloso ad un'altezza di 4500 ft

METAR: LQMO 211000Z 33016KT 9999 FEW045 19/06 Q1016

Ora: 12:32 (10:32 UTC)

Previsione

Il bollettino è stato emesso 5 ore e 32 minuti fa, alle 05:00 UTC
Previsione valida dal 21 alle 06 UTC al 22 alle 06 UTC
Vento 6 kt da nord-ovest
Visibilità 10 km o più
Nubi sparse ad un'altezza di 4500 ft
Nuvoloso ad un'altezza di 9000 ft
Probabilità 40% :
Temporaneamente
dal 21 alle 10 UTC al 21 alle 16 UTC
Vento 12 kt da nord/nord-est

TAF: LQMO 210500Z 2106/2206 32006KT 9999 SCT045 BKN090 TX22/2114Z TN08/2204Z PROB40 TEMPO 2110/2116 02012KT

Osservazioni e previsioni meteorologiche di più di 4000 aeroporti (messaggi METAR e TAF).

Le stazioni disponibili sono rappresentate dai dischi gialli e rossi sulla carta.

Puntare il mouse per vedere il nome della stazione.

Clicca sopra per visualizzare le osservazioni e previsioni meteorologiche.

Per cambiare la mappa : fare clic sui pulsanti verdi con una croce nera per ingrandire, il pulsante verde con un trattino per diminuire, o sulla freccia verde per le mappe adiacenti.


METAR-TAF: